Willow Branch, Indiana
Current Conditions -  °F | °C
As of 3:15 PM on Wednesday 28 Jan 2015 (Local Time) from KMQJ Reporting Station
Clear Clear  
Wind Chill: 25°   Ceiling: Unl
Heat Index: 34°   Visibility: 10mi
Dew Point:   Wind: 13mph
Humidity: 35%   Direction: 170°S
Pressure: 30.22"   Gusts: NA
Location:  39.9098°N, 85.6325°W
Report Text: KMQJ 282015Z AUTO 17011KT 10SM CLR 01/M13 A3022 RMK AO1
Loading
Personal Weather Stations






























Interactive Weather Map New forecast layout! Learn more

10-Day Weather Forecast

Advertisements
Track Severe Weather on mobile